createdAt,value
2019-01-26T00:01:29.737Z,25.77
2019-01-26T00:04:33.278Z,27.00
2019-01-26T00:07:37.103Z,26.93
2019-01-26T00:10:40.656Z,34.47
2019-01-26T00:13:44.220Z,27.60
2019-01-26T00:16:47.871Z,23.97
2019-01-26T00:19:51.743Z,24.53
2019-01-26T00:22:55.644Z,25.93
2019-01-26T00:25:59.219Z,25.73
2019-01-26T00:29:02.797Z,24.53
2019-01-26T00:32:06.522Z,29.60
2019-01-26T00:35:10.259Z,24.07
2019-01-26T00:38:14.166Z,26.83
2019-01-26T00:41:17.735Z,25.50
2019-01-26T00:44:21.329Z,29.67
2019-01-26T00:47:25.224Z,24.20
2019-01-26T00:50:29.119Z,25.83
2019-01-26T00:53:32.682Z,23.77
2019-01-26T00:56:36.260Z,22.60
2019-01-26T00:59:39.817Z,28.23
2019-01-26T01:02:43.374Z,24.93
2019-01-26T01:05:46.937Z,25.60
2019-01-26T01:08:50.558Z,24.93
2019-01-26T01:11:54.122Z,24.40
2019-01-26T01:14:57.681Z,21.10
2019-01-26T01:18:01.242Z,21.23
2019-01-26T01:21:04.894Z,21.23
2019-01-26T01:24:08.514Z,24.77
2019-01-26T01:27:12.086Z,22.70
2019-01-26T01:30:18.155Z,21.70
2019-01-26T01:33:22.038Z,20.47
2019-01-26T01:36:25.607Z,19.80
2019-01-26T01:39:29.216Z,24.83
2019-01-26T01:42:32.797Z,23.27
2019-01-26T01:45:36.417Z,22.77
2019-01-26T01:48:40.058Z,19.97
2019-01-26T01:51:43.971Z,23.20
2019-01-26T01:54:47.807Z,18.37
2019-01-26T01:57:51.451Z,18.03
2019-01-26T02:00:55.318Z,19.07
2019-01-26T02:03:58.887Z,18.63
2019-01-26T02:07:02.790Z,20.67
2019-01-26T02:10:08.086Z,18.40
2019-01-26T02:13:11.669Z,17.53
2019-01-26T02:16:15.215Z,17.00
2019-01-26T02:19:19.074Z,18.50
2019-01-26T02:22:22.638Z,15.27
2019-01-26T02:25:26.293Z,17.90
2019-01-26T02:28:29.861Z,18.10
2019-01-26T02:31:33.716Z,19.07
2019-01-26T02:34:37.600Z,16.73
2019-01-26T02:37:41.170Z,17.73
2019-01-26T02:40:44.728Z,16.97
2019-01-26T02:43:48.602Z,17.13
2019-01-26T02:46:57.891Z,15.97
2019-01-26T02:49:57.718Z,12.90
2019-01-26T02:53:01.889Z,15.73
2019-01-26T02:56:05.700Z,14.90
2019-01-26T02:59:09.272Z,16.20
2019-01-26T03:02:13.117Z,15.30
2019-01-26T03:05:16.674Z,14.97
2019-01-26T03:08:20.233Z,14.20
2019-01-26T03:11:23.856Z,16.53
2019-01-26T03:14:27.428Z,13.13
2019-01-26T03:17:30.982Z,15.20
2019-01-26T03:20:34.549Z,14.27
2019-01-26T03:23:38.597Z,13.40
2019-01-26T03:26:42.154Z,12.80
2019-01-26T03:29:45.824Z,12.17
2019-01-26T03:32:49.638Z,15.17
2019-01-26T03:35:53.784Z,12.70
2019-01-26T03:38:57.351Z,12.63
2019-01-26T03:42:01.110Z,16.53
2019-01-26T03:45:05.983Z,12.60
2019-01-26T03:48:09.944Z,12.97
2019-01-26T03:51:13.496Z,13.77
2019-01-26T03:54:17.101Z,16.33
2019-01-26T03:57:20.645Z,12.17
2019-01-26T04:00:26.329Z,13.00
2019-01-26T04:03:30.423Z,16.33
2019-01-26T04:06:34.058Z,12.37
2019-01-26T04:09:37.633Z,15.23
2019-01-26T04:12:41.588Z,12.87
2019-01-26T04:15:45.154Z,11.10
2019-01-26T04:18:48.885Z,13.37
2019-01-26T04:21:52.889Z,11.40
2019-01-26T04:24:56.434Z,12.17
2019-01-26T04:28:00.349Z,10.93
2019-01-26T04:31:04.006Z,10.53
2019-01-26T04:34:08.068Z,12.57
2019-01-26T04:37:11.960Z,10.83
2019-01-26T04:40:17.228Z,13.33
2019-01-26T04:43:21.024Z,14.27
2019-01-26T04:46:24.595Z,8.93
2019-01-26T04:49:28.152Z,10.33
2019-01-26T04:52:32.284Z,10.43
2019-01-26T04:55:35.853Z,14.30
2019-01-26T04:58:39.416Z,14.27
2019-01-26T05:01:42.986Z,12.50
2019-01-26T05:04:46.544Z,10.50
2019-01-26T05:07:50.595Z,11.93
2019-01-26T05:10:54.531Z,10.23
2019-01-26T05:13:58.669Z,8.90
2019-01-26T05:17:02.484Z,8.57
2019-01-26T05:20:09.338Z,9.87
2019-01-26T05:23:12.947Z,9.93
2019-01-26T05:26:16.499Z,9.10
2019-01-26T05:29:20.375Z,7.73
2019-01-26T05:32:24.260Z,10.80
2019-01-26T05:35:27.802Z,7.73
2019-01-26T05:38:31.349Z,12.37
2019-01-26T05:41:34.928Z,11.10
2019-01-26T05:44:38.884Z,8.07
2019-01-26T05:47:47.995Z,8.27
2019-01-26T05:50:47.937Z,9.43
2019-01-26T05:53:51.520Z,7.87
2019-01-26T05:56:55.078Z,10.07
2019-01-26T05:59:58.628Z,10.40
2019-01-26T06:03:02.570Z,7.43
2019-01-26T06:06:06.114Z,10.87
2019-01-26T06:09:09.741Z,7.37
2019-01-26T06:12:13.675Z,6.13
2019-01-26T06:15:17.331Z,7.17
2019-01-26T06:18:20.909Z,8.40
2019-01-26T06:21:24.443Z,6.73
2019-01-26T06:24:28.421Z,7.90
2019-01-26T06:27:32.208Z,9.17
2019-01-26T06:30:36.528Z,7.70
2019-01-26T06:33:40.094Z,5.83
2019-01-26T06:36:43.643Z,6.17
2019-01-26T06:39:47.196Z,6.03
2019-01-26T06:42:51.196Z,11.27
2019-01-26T06:45:54.848Z,8.60
2019-01-26T06:48:59.995Z,8.37
2019-01-26T06:52:03.808Z,5.17
2019-01-26T06:55:08.883Z,5.27
2019-01-26T06:58:12.503Z,10.63
2019-01-26T07:01:16.364Z,11.10
2019-01-26T07:04:30.509Z,5.77
2019-01-26T07:07:34.048Z,8.50
2019-01-26T07:10:37.926Z,6.73
2019-01-26T07:13:41.736Z,7.97
2019-01-26T07:16:45.281Z,7.27
2019-01-26T07:19:48.837Z,10.43
2019-01-26T07:22:52.462Z,5.77
2019-01-26T07:25:56.279Z,6.77
2019-01-26T07:29:00.258Z,5.63
2019-01-26T07:32:03.868Z,7.30
2019-01-26T07:35:07.987Z,5.23
2019-01-26T07:38:13.764Z,6.33
2019-01-26T07:41:16.840Z,4.40
2019-01-26T07:44:20.399Z,4.80
2019-01-26T07:47:23.946Z,27.07
2019-01-26T07:50:27.604Z,6.47
2019-01-26T07:53:31.476Z,9.70
2019-01-26T07:56:35.101Z,14.10
2019-01-26T07:59:38.973Z,27.03
2019-01-26T08:02:42.887Z,16.43
2019-01-26T08:05:46.544Z,19.63
2019-01-26T08:08:50.400Z,17.73
2019-01-26T08:11:54.062Z,16.90
2019-01-26T08:14:57.977Z,17.77
2019-01-26T08:18:01.545Z,27.70
2019-01-26T08:21:05.533Z,20.07
2019-01-26T08:24:09.133Z,18.87
2019-01-26T08:27:12.796Z,12.90
2019-01-26T08:30:18.705Z,11.30
2019-01-26T08:33:22.429Z,11.90
2019-01-26T08:36:26.231Z,10.10
2019-01-26T08:39:29.903Z,9.57
2019-01-26T08:42:33.480Z,8.20
2019-01-26T08:45:37.151Z,8.83
2019-01-26T08:48:40.781Z,7.93
2019-01-26T08:51:46.919Z,8.07
2019-01-26T08:54:50.561Z,13.07
2019-01-26T08:57:54.341Z,16.43
2019-01-26T09:00:57.937Z,20.43
2019-01-26T09:04:15.349Z,10.00
2019-01-26T09:07:19.010Z,11.07
2019-01-26T09:10:22.652Z,15.13
2019-01-26T09:13:26.448Z,12.07
2019-01-26T09:16:30.005Z,9.60
2019-01-26T09:19:33.689Z,13.50
2019-01-26T09:22:37.348Z,8.57
2019-01-26T09:25:41.260Z,9.57
2019-01-26T09:28:44.868Z,11.67
2019-01-26T09:31:48.494Z,9.77
2019-01-26T09:34:52.075Z,15.57
2019-01-26T09:37:56.997Z,12.00
2019-01-26T09:41:00.625Z,10.57
2019-01-26T09:44:04.651Z,14.47
2019-01-26T09:47:08.196Z,19.40
2019-01-26T09:50:11.932Z,10.90
2019-01-26T09:53:15.532Z,15.30
2019-01-26T09:56:19.184Z,10.93
2019-01-26T09:59:23.093Z,14.97
2019-01-26T10:02:26.653Z,9.00
2019-01-26T10:05:30.584Z,9.57
2019-01-26T10:08:34.381Z,8.67
2019-01-26T10:11:37.965Z,8.93
2019-01-26T10:14:42.116Z,10.13
2019-01-26T10:17:46.337Z,10.80
2019-01-26T10:20:49.909Z,10.00
2019-01-26T10:23:53.847Z,9.93
2019-01-26T10:26:57.653Z,9.53
2019-01-26T10:30:01.487Z,6.83
2019-01-26T10:33:05.707Z,9.83
2019-01-26T10:36:28.296Z,6.80
2019-01-26T10:39:31.852Z,7.47
2019-01-26T10:42:36.115Z,11.90
2019-01-26T10:45:39.753Z,11.67
2019-01-26T10:48:43.619Z,9.23
2019-01-26T10:51:47.327Z,11.17
2019-01-26T10:54:51.526Z,14.20
2019-01-26T10:57:55.600Z,12.70
2019-01-26T11:00:59.188Z,18.23
2019-01-26T11:04:03.074Z,17.43
2019-01-26T11:07:06.692Z,9.63
2019-01-26T11:10:11.323Z,9.10
2019-01-26T11:13:14.866Z,11.40
2019-01-26T11:16:18.428Z,8.47
2019-01-26T11:19:22.040Z,10.67
2019-01-26T11:22:25.636Z,9.07
2019-01-26T11:25:29.231Z,6.20
2019-01-26T11:28:32.779Z,7.10
2019-01-26T11:31:36.833Z,9.27
2019-01-26T11:34:42.119Z,14.53
2019-01-26T11:37:45.669Z,12.57
2019-01-26T11:40:49.632Z,13.63
2019-01-26T11:43:53.488Z,9.27
2019-01-26T11:47:00.393Z,8.80
2019-01-26T11:50:05.097Z,6.13
2019-01-26T11:53:08.980Z,5.57
2019-01-26T11:56:31.655Z,5.50
2019-01-26T11:59:35.439Z,4.90
2019-01-26T12:02:47.686Z,8.13
2019-01-26T12:05:55.387Z,5.30
2019-01-26T12:08:59.386Z,3.77
2019-01-26T12:12:02.944Z,3.63
2019-01-26T12:15:09.881Z,5.37
2019-01-26T12:18:14.063Z,5.77
2019-01-26T12:21:17.620Z,4.17
2019-01-26T12:24:21.163Z,5.00
2019-01-26T12:27:24.943Z,5.63
2019-01-26T12:30:28.483Z,7.67
2019-01-26T12:33:32.034Z,5.70
2019-01-26T12:36:35.583Z,4.20
2019-01-26T12:39:39.130Z,5.90
2019-01-26T12:42:42.686Z,5.00
2019-01-26T12:45:46.531Z,6.50
2019-01-26T12:48:50.083Z,4.50
2019-01-26T12:51:53.633Z,5.77
2019-01-26T12:54:57.176Z,4.07
2019-01-26T12:58:01.123Z,5.57
2019-01-26T13:01:06.020Z,5.17
2019-01-26T13:04:09.582Z,3.27
2019-01-26T13:07:13.144Z,4.07
2019-01-26T13:10:19.898Z,3.37
2019-01-26T13:13:23.836Z,6.60
2019-01-26T13:16:27.424Z,3.27
2019-01-26T13:19:36.798Z,3.73
2019-01-26T13:22:36.247Z,3.53
2019-01-26T13:25:40.118Z,4.50
2019-01-26T13:28:43.685Z,4.30
2019-01-26T13:31:47.476Z,3.97
2019-01-26T13:34:51.028Z,2.53
2019-01-26T13:37:54.586Z,2.77
2019-01-26T13:40:58.123Z,4.57
2019-01-26T13:44:01.682Z,2.43
2019-01-26T13:47:05.682Z,3.60
2019-01-26T13:50:09.636Z,3.40
2019-01-26T13:53:13.584Z,3.00
2019-01-26T13:56:17.123Z,2.47
2019-01-26T13:59:20.679Z,2.30
2019-01-26T14:02:24.292Z,3.40
2019-01-26T14:05:27.926Z,4.10
2019-01-26T14:08:31.471Z,2.93
2019-01-26T14:11:35.067Z,2.50
2019-01-26T14:14:38.922Z,5.07
2019-01-26T14:17:42.843Z,2.53
2019-01-26T14:20:46.391Z,3.97
2019-01-26T14:23:49.939Z,2.77
2019-01-26T14:26:53.869Z,3.40
2019-01-26T14:29:57.528Z,3.83
2019-01-26T14:33:01.206Z,6.70
2019-01-26T14:36:05.119Z,8.77
2019-01-26T14:39:09.807Z,8.77
2019-01-26T14:42:13.350Z,6.77
2019-01-26T14:45:17.542Z,3.83
2019-01-26T14:48:21.287Z,3.20
2019-01-26T14:51:24.858Z,15.33
2019-01-26T14:54:28.770Z,58.30
2019-01-26T14:57:32.426Z,52.43
2019-01-26T15:00:36.252Z,38.40
2019-01-26T15:03:39.813Z,36.67
2019-01-26T15:06:43.395Z,38.17
2019-01-26T15:09:47.317Z,29.27
2019-01-26T15:12:50.997Z,35.10
2019-01-26T15:15:54.556Z,35.57
2019-01-26T15:18:58.125Z,30.77
2019-01-26T15:22:01.934Z,29.13
2019-01-26T15:25:06.624Z,27.10
2019-01-26T15:28:10.580Z,25.57
2019-01-26T15:31:14.170Z,27.53
2019-01-26T15:34:17.878Z,26.17
2019-01-26T15:37:21.570Z,31.43
2019-01-26T15:40:25.515Z,18.53
2019-01-26T15:43:29.241Z,25.20
2019-01-26T15:46:32.818Z,26.50
2019-01-26T15:49:36.763Z,23.37
2019-01-26T15:52:40.701Z,22.17
2019-01-26T15:55:44.467Z,31.43
2019-01-26T15:58:48.345Z,33.47
2019-01-26T16:01:52.019Z,25.60
2019-01-26T16:04:55.569Z,31.60
2019-01-26T16:07:59.523Z,22.93
2019-01-26T16:11:03.072Z,19.00
2019-01-26T16:14:06.809Z,17.70
2019-01-26T16:17:10.768Z,21.37
2019-01-26T16:20:20.209Z,23.00
2019-01-26T16:23:20.329Z,18.17
2019-01-26T16:26:23.921Z,20.80
2019-01-26T16:29:28.076Z,12.10
2019-01-26T16:32:32.169Z,15.90
2019-01-26T16:35:35.760Z,17.90
2019-01-26T16:38:39.577Z,16.47
2019-01-26T16:41:43.170Z,12.13
2019-01-26T16:44:46.834Z,17.47
2019-01-26T16:47:50.489Z,10.83
2019-01-26T16:50:54.131Z,17.13
2019-01-26T16:53:58.240Z,17.97
2019-01-26T16:57:01.867Z,23.83
2019-01-26T17:00:09.318Z,12.83
2019-01-26T17:03:13.239Z,17.63
2019-01-26T17:06:16.819Z,28.80
2019-01-26T17:09:20.550Z,16.83
2019-01-26T17:12:25.038Z,13.40
2019-01-26T17:15:28.847Z,13.03
2019-01-26T17:18:32.467Z,13.40
2019-01-26T17:21:36.591Z,12.37
2019-01-26T17:24:40.528Z,13.23
2019-01-26T17:27:44.709Z,10.63
2019-01-26T17:30:48.312Z,17.73
2019-01-26T17:33:52.472Z,8.97
2019-01-26T17:36:56.079Z,10.63
2019-01-26T17:39:59.618Z,13.90
2019-01-26T17:43:03.186Z,14.97
2019-01-26T17:46:07.206Z,10.43
2019-01-26T17:49:10.756Z,12.93
2019-01-26T17:52:14.379Z,16.27
2019-01-26T17:55:17.924Z,19.80
2019-01-26T17:58:21.990Z,16.80
2019-01-26T18:01:26.138Z,13.90
2019-01-26T18:04:29.688Z,9.87
2019-01-26T18:07:33.298Z,14.70
2019-01-26T18:10:36.897Z,15.67
2019-01-26T18:13:40.504Z,9.47
2019-01-26T18:16:44.152Z,14.53
2019-01-26T18:19:48.059Z,21.00
2019-01-26T18:22:51.633Z,14.37
2019-01-26T18:25:55.282Z,8.17
2019-01-26T18:28:58.808Z,14.13
2019-01-26T18:32:02.658Z,8.23
2019-01-26T18:35:07.465Z,7.57
2019-01-26T18:38:11.077Z,7.30
2019-01-26T18:41:14.625Z,8.90
2019-01-26T18:44:18.176Z,9.00
2019-01-26T18:47:21.722Z,6.17
2019-01-26T18:50:29.780Z,9.50
2019-01-26T18:53:33.328Z,8.70
2019-01-26T18:56:36.874Z,11.33
2019-01-26T18:59:40.508Z,7.97
2019-01-26T19:02:44.492Z,7.97
2019-01-26T19:05:48.047Z,5.30
2019-01-26T19:08:52.267Z,8.50
2019-01-26T19:11:56.122Z,6.57
2019-01-26T19:14:59.673Z,6.23
2019-01-26T19:18:03.209Z,6.63
2019-01-26T19:21:06.833Z,6.37
2019-01-26T19:24:10.401Z,9.33
2019-01-26T19:27:13.949Z,11.73
2019-01-26T19:30:19.478Z,8.63
2019-01-26T19:33:23.019Z,7.33
2019-01-26T19:36:26.777Z,9.33
2019-01-26T19:39:30.477Z,10.50
2019-01-26T19:42:34.128Z,13.40
2019-01-26T19:45:37.913Z,16.33
2019-01-26T19:48:41.636Z,9.77
2019-01-26T19:51:45.321Z,10.40
2019-01-26T19:54:48.909Z,12.57
2019-01-26T19:57:52.712Z,8.87
2019-01-26T20:00:56.605Z,11.73
2019-01-26T20:04:00.227Z,15.23
2019-01-26T20:07:04.436Z,10.40
2019-01-26T20:10:09.336Z,9.00
2019-01-26T20:13:13.403Z,8.37
2019-01-26T20:16:16.980Z,11.40
2019-01-26T20:19:20.553Z,6.20
2019-01-26T20:22:24.136Z,11.37
2019-01-26T20:25:27.687Z,9.37
2019-01-26T20:28:31.701Z,6.23
2019-01-26T20:31:35.608Z,9.43
2019-01-26T20:34:39.581Z,7.00
2019-01-26T20:37:43.276Z,8.07
2019-01-26T20:40:46.831Z,8.37
2019-01-26T20:43:50.468Z,6.30
2019-01-26T20:46:54.363Z,10.67
2019-01-26T20:49:57.913Z,10.47
2019-01-26T20:53:01.543Z,9.17
2019-01-26T20:56:05.709Z,13.60
2019-01-26T20:59:09.417Z,11.20
2019-01-26T21:02:13.035Z,5.60
2019-01-26T21:05:16.751Z,8.60
2019-01-26T21:08:20.814Z,10.10
2019-01-26T21:11:24.637Z,14.03
2019-01-26T21:14:28.182Z,10.83
2019-01-26T21:17:31.894Z,10.73
2019-01-26T21:20:35.749Z,10.43
2019-01-26T21:23:39.516Z,6.93
2019-01-26T21:26:43.829Z,10.87
2019-01-26T21:29:47.645Z,8.80
2019-01-26T21:32:51.277Z,15.13
2019-01-26T21:35:54.856Z,12.20
2019-01-26T21:38:59.248Z,8.90
2019-01-26T21:42:02.972Z,15.47
2019-01-26T21:45:07.273Z,10.10
2019-01-26T21:48:10.827Z,11.90
2019-01-26T21:51:14.446Z,10.60
2019-01-26T21:54:18.023Z,8.37
2019-01-26T21:57:21.578Z,8.00
2019-01-26T22:00:30.441Z,10.83
2019-01-26T22:03:34.320Z,20.73
2019-01-26T22:06:38.166Z,11.60
2019-01-26T22:09:42.040Z,7.20
2019-01-26T22:12:45.903Z,15.20
2019-01-26T22:15:49.537Z,16.97
2019-01-26T22:18:53.113Z,27.37
2019-01-26T22:21:56.793Z,23.20
2019-01-26T22:25:00.679Z,24.70
2019-01-26T22:28:04.409Z,20.90
2019-01-26T22:31:07.954Z,16.97
2019-01-26T22:34:11.830Z,20.10
2019-01-26T22:37:15.526Z,13.00
2019-01-26T22:40:21.855Z,14.67
2019-01-26T22:43:25.904Z,14.73
2019-01-26T22:46:29.764Z,11.77
2019-01-26T22:49:33.325Z,15.73
2019-01-26T22:52:37.024Z,10.27
2019-01-26T22:55:40.586Z,9.80
2019-01-26T22:58:44.216Z,11.60
2019-01-26T23:01:47.916Z,7.63
2019-01-26T23:05:08.156Z,10.57
2019-01-26T23:08:18.725Z,6.87
2019-01-26T23:11:39.692Z,7.53
2019-01-26T23:15:29.420Z,8.77
2019-01-26T23:19:05.807Z,5.93
2019-01-26T23:22:40.860Z,7.73
2019-01-26T23:26:09.935Z,6.80
2019-01-26T23:30:09.120Z,6.13
2019-01-26T23:33:12.731Z,8.87
2019-01-26T23:36:16.926Z,12.50
2019-01-26T23:39:20.477Z,11.87
2019-01-26T23:42:24.644Z,13.13
2019-01-26T23:45:28.278Z,10.43
2019-01-26T23:48:31.900Z,9.57
2019-01-26T23:51:35.696Z,8.63
2019-01-26T23:54:39.265Z,10.50
2019-01-26T23:57:42.803Z,9.53
